createdAt,value
2019-04-29T00:03:51.740Z,12.52
2019-04-29T00:08:48.758Z,12.63
2019-04-29T00:13:45.959Z,12.54
2019-04-29T00:19:01.246Z,12.60
2019-04-29T00:24:03.926Z,12.72
2019-04-29T00:28:57.589Z,12.56
2019-04-29T00:33:54.643Z,12.61
2019-04-29T00:39:10.326Z,12.58
2019-04-29T00:44:09.076Z,12.63
2019-04-29T00:49:06.636Z,12.59
2019-04-29T00:54:05.361Z,12.57
2019-04-29T00:59:02.754Z,12.58
2019-04-29T01:03:59.713Z,12.52
2019-04-29T01:08:56.823Z,12.49
2019-04-29T01:13:53.788Z,12.41
2019-04-29T01:18:50.898Z,12.51
2019-04-29T01:23:47.924Z,12.54
2019-04-29T01:28:49.361Z,12.44
2019-04-29T01:33:47.575Z,12.61
2019-04-29T01:38:45.061Z,12.59
2019-04-29T01:44:00.345Z,12.56
2019-04-29T01:48:57.340Z,12.63
2019-04-29T01:53:54.608Z,12.53
2019-04-29T01:58:51.584Z,12.56
2019-04-29T02:03:49.506Z,12.51
2019-04-29T02:08:46.562Z,12.56
2019-04-29T02:13:43.540Z,12.43
2019-04-29T02:18:40.484Z,12.50
2019-04-29T02:23:45.096Z,12.49
2019-04-29T02:28:42.040Z,12.46
2019-04-29T02:33:39.059Z,12.34
2019-04-29T02:38:43.924Z,12.51
2019-04-29T02:43:45.957Z,12.46
2019-04-29T02:48:43.019Z,12.43
2019-04-29T02:53:40.121Z,12.35
2019-04-29T02:58:44.680Z,12.35
2019-04-29T03:04:00.326Z,12.45
2019-04-29T03:08:57.506Z,12.54
2019-04-29T03:13:54.494Z,12.48
2019-04-29T03:18:53.466Z,12.32
2019-04-29T03:23:50.952Z,12.40
2019-04-29T03:28:47.974Z,12.43
2019-04-29T03:33:45.019Z,12.47
2019-04-29T03:38:41.969Z,12.60
2019-04-29T03:43:39.099Z,12.59
2019-04-29T03:48:36.150Z,12.50
2019-04-29T03:53:33.113Z,12.54
2019-04-29T03:58:30.134Z,12.51
2019-04-29T04:03:29.375Z,12.48
2019-04-29T04:08:28.225Z,12.47
2019-04-29T04:13:26.164Z,12.52
2019-04-29T04:18:24.241Z,12.60
2019-04-29T04:23:21.687Z,12.53
2019-04-29T04:28:18.710Z,12.66
2019-04-29T04:33:15.707Z,12.81
2019-04-29T04:38:12.682Z,12.62
2019-04-29T04:43:09.728Z,12.77
2019-04-29T04:48:06.666Z,12.60
2019-04-29T04:53:03.768Z,12.71
2019-04-29T04:58:00.732Z,12.83
2019-04-29T05:02:57.808Z,12.73
2019-04-29T05:07:54.835Z,12.83
2019-04-29T05:12:51.934Z,12.97
2019-04-29T05:17:48.963Z,13.00
2019-04-29T05:23:01.384Z,13.07
2019-04-29T05:27:58.751Z,13.22
2019-04-29T05:32:55.763Z,13.32
2019-04-29T05:38:11.747Z,13.28
2019-04-29T05:43:10.655Z,13.42
2019-04-29T05:48:09.528Z,13.23
2019-04-29T05:53:19.653Z,13.27
2019-04-29T05:58:16.639Z,13.45
2019-04-29T06:03:13.733Z,13.83
2019-04-29T06:08:13.855Z,14.16
2019-04-29T06:13:11.060Z,14.41
2019-04-29T06:18:10.136Z,14.29
2019-04-29T06:23:07.263Z,14.36
2019-04-29T06:28:05.493Z,14.48
2019-04-29T06:33:02.587Z,14.53
2019-04-29T06:37:59.990Z,14.54
2019-04-29T06:42:57.119Z,14.53
2019-04-29T06:47:54.276Z,14.82
2019-04-29T06:52:52.427Z,15.01
2019-04-29T06:57:49.502Z,15.08
2019-04-29T07:02:49.952Z,15.18
2019-04-29T07:07:58.856Z,15.32
2019-04-29T07:13:00.064Z,15.54
2019-04-29T07:17:57.259Z,15.63
2019-04-29T07:22:56.576Z,15.84
2019-04-29T07:27:57.542Z,16.13
2019-04-29T07:32:54.658Z,16.35
2019-04-29T07:37:52.982Z,16.55
2019-04-29T07:42:51.029Z,17.04
2019-04-29T07:47:57.032Z,17.58
2019-04-29T07:52:54.313Z,17.72
2019-04-29T07:57:52.186Z,17.55
2019-04-29T08:02:50.329Z,17.74
2019-04-29T08:07:49.091Z,17.99
2019-04-29T08:12:48.553Z,18.07
2019-04-29T08:17:47.415Z,17.73
2019-04-29T08:22:44.525Z,17.72
2019-04-29T08:27:46.451Z,17.82
2019-04-29T08:32:46.310Z,17.93
2019-04-29T08:37:43.534Z,17.66
2019-04-29T08:42:46.685Z,18.16
2019-04-29T08:47:43.497Z,18.97
2019-04-29T08:52:40.514Z,19.93
2019-04-29T08:57:37.564Z,20.65
2019-04-29T09:02:35.741Z,20.80
2019-04-29T09:07:33.613Z,20.50
2019-04-29T09:12:34.658Z,21.05
2019-04-29T09:17:35.158Z,21.55
2019-04-29T09:22:33.737Z,22.62
2019-04-29T09:27:32.891Z,22.55
2019-04-29T09:32:33.981Z,22.49
2019-04-29T09:37:31.439Z,22.11
2019-04-29T09:42:33.622Z,21.76
2019-04-29T09:47:31.678Z,21.62
2019-04-29T09:52:30.730Z,22.59
2019-04-29T09:57:29.149Z,22.01
2019-04-29T10:02:33.071Z,21.80
2019-04-29T10:07:30.443Z,21.95
2019-04-29T10:12:29.136Z,22.06
2019-04-29T10:17:40.488Z,21.92
2019-04-29T10:22:39.180Z,21.59
2019-04-29T10:27:42.818Z,21.64
2019-04-29T10:32:42.471Z,21.86
2019-04-29T10:37:38.588Z,21.61
2019-04-29T10:42:46.342Z,21.31
2019-04-29T10:48:00.870Z,21.14
2019-04-29T10:52:57.999Z,20.97
2019-04-29T10:57:55.238Z,20.78
2019-04-29T11:02:52.719Z,20.35
2019-04-29T11:07:53.714Z,20.00
2019-04-29T11:12:53.099Z,19.97
2019-04-29T11:17:59.218Z,19.75
2019-04-29T11:23:09.797Z,19.66
2019-04-29T11:28:07.922Z,19.43
2019-04-29T11:33:25.034Z,19.14
2019-04-29T11:38:24.145Z,18.93
2019-04-29T11:43:21.532Z,18.81
2019-04-29T11:48:22.442Z,18.89
2019-04-29T11:53:19.427Z,18.88
2019-04-29T11:58:37.183Z,18.92
2019-04-29T12:03:46.388Z,18.99
2019-04-29T12:08:48.308Z,19.31
2019-04-29T12:13:47.174Z,19.52
2019-04-29T12:18:48.540Z,19.52
2019-04-29T12:23:47.732Z,19.93
2019-04-29T12:28:46.718Z,19.81
2019-04-29T12:33:44.177Z,19.73
2019-04-29T12:38:48.751Z,19.48
2019-04-29T12:43:48.599Z,19.28
2019-04-29T12:48:44.747Z,19.30
2019-04-29T12:53:44.749Z,19.28
2019-04-29T12:58:50.426Z,19.25
2019-04-29T13:03:55.077Z,19.06
2019-04-29T13:08:57.958Z,18.94
2019-04-29T13:14:01.944Z,18.71
2019-04-29T13:19:20.597Z,18.70
2019-04-29T13:24:24.553Z,18.75
2019-04-29T13:29:27.341Z,18.82
2019-04-29T13:34:32.853Z,18.96
2019-04-29T13:39:39.965Z,19.09
2019-04-29T13:44:42.308Z,18.98
2019-04-29T13:49:49.373Z,18.95
2019-04-29T13:54:50.153Z,18.80
2019-04-29T13:59:51.162Z,18.51
2019-04-29T14:04:55.839Z,18.40
2019-04-29T14:09:57.740Z,18.20
2019-04-29T14:14:58.468Z,18.18
2019-04-29T14:19:57.133Z,17.97
2019-04-29T14:24:54.328Z,18.01
2019-04-29T14:29:55.153Z,18.16
2019-04-29T14:34:58.914Z,18.22
2019-04-29T14:39:55.957Z,18.29
2019-04-29T14:45:00.033Z,18.30
2019-04-29T14:50:00.853Z,18.34
2019-04-29T14:54:58.060Z,18.20
2019-04-29T14:59:57.201Z,18.29
2019-04-29T15:04:58.459Z,18.22
2019-04-29T15:10:01.586Z,18.30
2019-04-29T15:15:05.518Z,18.32
2019-04-29T15:20:07.975Z,18.34
2019-04-29T15:25:07.091Z,18.35
2019-04-29T15:30:08.569Z,18.24
2019-04-29T15:35:06.806Z,18.13
2019-04-29T15:40:07.043Z,18.13
2019-04-29T15:45:08.329Z,18.39
2019-04-29T15:50:18.339Z,18.56
2019-04-29T15:55:06.064Z,18.47
2019-04-29T16:00:20.749Z,18.40
2019-04-29T16:05:16.892Z,18.25
2019-04-29T16:10:20.004Z,17.93
2019-04-29T16:15:14.573Z,17.80
2019-04-29T16:20:11.904Z,17.71
2019-04-29T16:25:16.745Z,17.66
2019-04-29T16:30:19.003Z,17.44
2019-04-29T16:35:23.982Z,17.30
2019-04-29T16:40:19.255Z,17.15
2019-04-29T16:45:16.661Z,16.94
2019-04-29T16:50:15.702Z,16.90
2019-04-29T16:55:18.943Z,16.84
2019-04-29T17:00:16.972Z,16.79
2019-04-29T17:05:16.008Z,16.76
2019-04-29T17:10:31.301Z,16.72
2019-04-29T17:15:34.517Z,16.58
2019-04-29T17:20:32.104Z,16.43
2019-04-29T17:25:29.322Z,16.27
2019-04-29T17:30:46.732Z,16.24
2019-04-29T17:35:47.654Z,16.15
2019-04-29T17:40:51.206Z,15.73
2019-04-29T17:45:54.463Z,15.60
2019-04-29T17:50:53.331Z,15.34
2019-04-29T17:55:56.024Z,15.31
2019-04-29T18:01:12.011Z,15.32
2019-04-29T18:06:10.819Z,15.31
2019-04-29T18:11:08.379Z,15.21
2019-04-29T18:16:17.567Z,15.27
2019-04-29T18:21:12.294Z,15.22
2019-04-29T18:26:15.337Z,15.12
2019-04-29T18:31:13.868Z,15.18
2019-04-29T18:36:21.872Z,15.14
2019-04-29T18:41:16.413Z,15.08
2019-04-29T18:46:12.573Z,15.19
2019-04-29T18:51:09.694Z,15.17
2019-04-29T18:56:09.523Z,15.08
2019-04-29T19:01:06.790Z,15.12
2019-04-29T19:06:10.230Z,15.06
2019-04-29T19:11:06.930Z,15.08
2019-04-29T19:16:10.179Z,15.07
2019-04-29T19:21:03.280Z,14.98
2019-04-29T19:26:00.524Z,14.94
2019-04-29T19:31:03.121Z,14.80
2019-04-29T19:35:56.538Z,14.71
2019-04-29T19:40:55.934Z,14.59
2019-04-29T19:45:54.938Z,14.41
2019-04-29T19:51:13.932Z,14.34
2019-04-29T19:56:03.531Z,14.29
2019-04-29T20:00:52.555Z,14.17
2019-04-29T20:06:09.665Z,14.25
2019-04-29T20:11:14.177Z,13.98
2019-04-29T20:16:12.751Z,14.03
2019-04-29T20:23:27.470Z,14.02
2019-04-29T20:26:18.755Z,14.12
2019-04-29T20:31:18.774Z,14.11
2019-04-29T20:36:12.878Z,14.13
2019-04-29T20:41:12.875Z,14.07
2019-04-29T20:46:09.057Z,14.07
2019-04-29T20:51:13.333Z,14.17
2019-04-29T20:56:12.311Z,14.17
2019-04-29T21:01:11.195Z,14.18
2019-04-29T21:06:06.678Z,14.08
2019-04-29T21:11:14.276Z,13.87
2019-04-29T21:16:12.803Z,13.95
2019-04-29T21:21:09.866Z,14.03
2019-04-29T21:26:09.778Z,14.13
2019-04-29T21:31:06.833Z,14.14
2019-04-29T21:36:05.398Z,14.19
2019-04-29T21:41:07.160Z,14.24
2019-04-29T21:46:07.707Z,14.23
2019-04-29T21:51:10.690Z,14.20
2019-04-29T21:56:09.192Z,14.23
2019-04-29T22:01:05.342Z,14.12
2019-04-29T22:06:03.069Z,14.06
2019-04-29T22:11:04.873Z,14.29
2019-04-29T22:15:59.469Z,14.13
2019-04-29T22:20:56.436Z,14.16
2019-04-29T22:25:57.996Z,14.01
2019-04-29T22:30:56.237Z,14.15
2019-04-29T22:35:55.303Z,14.14
2019-04-29T22:40:55.078Z,14.26
2019-04-29T22:45:52.436Z,14.34
2019-04-29T22:50:49.484Z,14.27
2019-04-29T22:55:46.575Z,14.25
2019-04-29T23:00:43.703Z,14.19
2019-04-29T23:05:40.723Z,14.27
2019-04-29T23:10:39.714Z,14.25
2019-04-29T23:15:36.769Z,14.25
2019-04-29T23:20:35.271Z,14.19
2019-04-29T23:25:35.418Z,14.13
2019-04-29T23:30:32.676Z,14.09
2019-04-29T23:35:30.255Z,14.07
2019-04-29T23:40:27.383Z,14.15
2019-04-29T23:45:25.228Z,14.12
2019-04-29T23:50:22.414Z,14.02
2019-04-29T23:55:27.425Z,14.14
